createdAt,value
2023-06-23T00:04:13.450Z,56.03
2023-06-23T00:08:29.881Z,56.00
2023-06-23T00:12:46.699Z,56.20
2023-06-23T00:17:04.156Z,56.03
2023-06-23T00:21:21.207Z,56.36
2023-06-23T00:25:38.029Z,56.28
2023-06-23T00:29:54.329Z,56.91
2023-06-23T00:34:10.701Z,56.65
2023-06-23T00:38:27.503Z,56.28
2023-06-23T00:42:54.380Z,56.42
2023-06-23T00:47:10.891Z,56.46
2023-06-23T00:51:27.788Z,56.01
2023-06-23T00:55:45.911Z,56.31
2023-06-23T01:00:02.317Z,55.90
2023-06-23T01:04:18.729Z,56.46
2023-06-23T01:08:43.581Z,56.26
2023-06-23T01:13:38.962Z,56.68
2023-06-23T01:18:21.316Z,56.28
2023-06-23T01:23:17.405Z,56.70
2023-06-23T01:27:48.388Z,56.92
2023-06-23T01:32:14.262Z,56.10
2023-06-23T01:36:56.356Z,56.99
2023-06-23T01:41:25.306Z,56.90
2023-06-23T01:45:42.481Z,56.41
2023-06-23T01:49:59.699Z,56.18
2023-06-23T01:54:16.542Z,56.07
2023-06-23T01:58:34.849Z,55.99
2023-06-23T02:02:53.396Z,56.10
2023-06-23T02:07:12.195Z,56.06
2023-06-23T02:11:29.188Z,56.63
2023-06-23T02:15:46.846Z,56.41
2023-06-23T02:20:12.256Z,56.55
2023-06-23T02:24:28.941Z,56.51
2023-06-23T02:28:51.306Z,56.62
2023-06-23T02:33:07.730Z,56.66
2023-06-23T02:37:25.663Z,56.89
2023-06-23T02:41:43.686Z,56.59
2023-06-23T02:46:02.623Z,56.97
2023-06-23T02:50:21.739Z,56.90
2023-06-23T02:54:43.484Z,56.65
2023-06-23T02:59:04.832Z,56.98
2023-06-23T03:03:21.414Z,57.14
2023-06-23T03:07:40.218Z,57.40
2023-06-23T03:11:56.644Z,57.53
2023-06-23T03:16:37.375Z,58.44
2023-06-23T03:20:54.317Z,58.25
2023-06-23T03:25:17.911Z,57.38
2023-06-23T03:29:38.211Z,57.19
2023-06-23T03:33:57.101Z,57.33
2023-06-23T03:38:18.442Z,57.75
2023-06-23T03:42:37.957Z,57.63
2023-06-23T03:46:58.969Z,57.93
2023-06-23T03:51:20.372Z,57.90
2023-06-23T03:55:38.775Z,57.88
2023-06-23T03:59:55.942Z,58.06
2023-06-23T04:04:13.530Z,58.61
2023-06-23T04:08:32.578Z,58.08
2023-06-23T04:12:49.742Z,58.25
2023-06-23T04:17:10.046Z,58.69
2023-06-23T04:21:26.324Z,58.41
2023-06-23T04:25:43.398Z,58.15
2023-06-23T04:30:00.802Z,57.83
2023-06-23T04:34:17.159Z,58.45
2023-06-23T04:38:36.148Z,57.89
2023-06-23T04:43:00.894Z,56.82
2023-06-23T04:47:20.578Z,56.77
2023-06-23T04:51:42.349Z,56.82
2023-06-23T04:56:07.155Z,57.05
2023-06-23T05:00:25.312Z,56.05
2023-06-23T05:04:42.835Z,56.10
2023-06-23T05:09:00.834Z,55.92
2023-06-23T05:13:18.674Z,56.19
2023-06-23T05:17:36.861Z,56.96
2023-06-23T05:21:55.556Z,56.16
2023-06-23T05:26:15.274Z,55.90
2023-06-23T05:30:33.079Z,55.86
2023-06-23T05:34:51.275Z,55.16
2023-06-23T05:39:08.748Z,55.20
2023-06-23T05:43:25.021Z,55.00
2023-06-23T05:47:41.358Z,54.19
2023-06-23T05:52:00.506Z,54.57
2023-06-23T05:56:23.039Z,54.81
2023-06-23T06:00:57.764Z,53.95
2023-06-23T06:05:18.865Z,54.29
2023-06-23T06:09:36.332Z,54.19
2023-06-23T06:13:52.977Z,53.83
2023-06-23T06:18:11.254Z,53.10
2023-06-23T06:22:29.230Z,54.11
2023-06-23T06:26:47.475Z,53.28
2023-06-23T06:31:04.651Z,53.37
2023-06-23T06:35:21.860Z,53.12
2023-06-23T06:39:42.708Z,52.86
2023-06-23T06:43:59.190Z,52.66
2023-06-23T06:48:16.191Z,52.10
2023-06-23T06:52:44.216Z,52.36
2023-06-23T06:57:01.650Z,51.57
2023-06-23T07:01:18.041Z,51.31
2023-06-23T07:05:34.489Z,51.59
2023-06-23T07:09:50.732Z,51.00
2023-06-23T07:14:07.260Z,51.09
2023-06-23T07:18:25.180Z,50.56
2023-06-23T07:22:41.398Z,50.72
2023-06-23T07:26:57.679Z,50.55
2023-06-23T07:31:16.057Z,49.13
2023-06-23T07:35:32.312Z,50.31
2023-06-23T07:39:48.614Z,49.30
2023-06-23T07:44:05.093Z,49.84
2023-06-23T07:48:21.711Z,48.54
2023-06-23T07:52:38.056Z,47.77
2023-06-23T07:56:54.397Z,46.90
2023-06-23T08:01:11.901Z,47.70
2023-06-23T08:05:28.460Z,49.29
2023-06-23T08:09:45.690Z,47.38
2023-06-23T08:14:02.213Z,47.83
2023-06-23T08:18:18.691Z,46.48
2023-06-23T08:22:35.093Z,46.50
2023-06-23T08:26:51.390Z,46.73
2023-06-23T08:31:07.930Z,45.64
2023-06-23T08:35:24.632Z,45.28
2023-06-23T08:39:41.240Z,44.79
2023-06-23T08:44:00.847Z,45.30
2023-06-23T08:48:18.383Z,43.52
2023-06-23T08:52:35.279Z,45.00
2023-06-23T08:56:51.825Z,45.00
2023-06-23T09:01:08.186Z,46.96
2023-06-23T09:05:24.995Z,44.82
2023-06-23T09:09:44.284Z,45.17
2023-06-23T09:14:04.181Z,43.73
2023-06-23T09:18:21.178Z,44.00
2023-06-23T09:22:38.115Z,42.57
2023-06-23T09:26:58.408Z,43.63
2023-06-23T09:31:16.909Z,43.48
2023-06-23T09:35:34.457Z,43.83
2023-06-23T09:39:56.080Z,43.45
2023-06-23T09:44:13.954Z,43.46
2023-06-23T09:48:30.584Z,43.85
2023-06-23T09:52:49.964Z,43.50
2023-06-23T09:57:16.889Z,44.57
2023-06-23T10:01:37.263Z,44.12
2023-06-23T10:05:57.361Z,45.11
2023-06-23T10:10:21.545Z,44.87
2023-06-23T10:14:40.860Z,45.92
2023-06-23T10:18:58.723Z,44.84
2023-06-23T10:23:15.141Z,43.90
2023-06-23T10:27:33.020Z,45.60
2023-06-23T10:31:51.383Z,46.41
2023-06-23T10:36:09.965Z,46.08
2023-06-23T10:40:27.305Z,45.51
2023-06-23T10:44:44.302Z,45.74
2023-06-23T10:49:00.899Z,43.91
2023-06-23T10:53:22.813Z,43.18
2023-06-23T10:57:39.157Z,43.78
2023-06-23T11:02:10.215Z,42.75
2023-06-23T11:06:36.032Z,43.53
2023-06-23T11:11:09.309Z,41.80
2023-06-23T11:15:28.663Z,42.81
2023-06-23T11:19:45.088Z,42.21
2023-06-23T11:24:26.937Z,42.31
2023-06-23T11:28:43.328Z,42.72
2023-06-23T11:33:35.650Z,43.52
2023-06-23T11:37:51.995Z,43.47
2023-06-23T11:42:08.601Z,44.41
2023-06-23T11:46:25.667Z,42.45
2023-06-23T11:50:45.023Z,44.36
2023-06-23T11:55:01.480Z,43.69
2023-06-23T11:59:19.410Z,43.63
2023-06-23T12:03:37.494Z,42.58
2023-06-23T12:07:54.187Z,42.06
2023-06-23T12:12:15.709Z,42.37
2023-06-23T12:16:39.622Z,40.34
2023-06-23T12:20:56.002Z,41.11
2023-06-23T12:25:12.589Z,41.82
2023-06-23T12:29:32.875Z,42.24
2023-06-23T12:33:51.403Z,42.54
2023-06-23T12:38:10.186Z,42.00
2023-06-23T12:42:27.078Z,40.91
2023-06-23T12:46:43.550Z,41.86
2023-06-23T12:51:00.046Z,40.10
2023-06-23T12:55:17.806Z,41.26
2023-06-23T12:59:34.377Z,41.05
2023-06-23T13:03:51.093Z,39.91
2023-06-23T13:08:08.291Z,38.91
2023-06-23T13:12:24.757Z,39.18
2023-06-23T13:16:41.434Z,37.89
2023-06-23T13:20:57.831Z,36.32
2023-06-23T13:25:15.337Z,37.78
2023-06-23T13:29:31.706Z,38.28
2023-06-23T13:33:48.062Z,38.20
2023-06-23T13:38:04.497Z,38.37
2023-06-23T13:42:20.890Z,38.18
2023-06-23T13:46:37.302Z,37.72
2023-06-23T13:50:53.762Z,36.07
2023-06-23T13:55:11.409Z,35.19
2023-06-23T13:59:27.769Z,34.31
2023-06-23T14:03:44.329Z,35.94
2023-06-23T14:08:00.688Z,37.03
2023-06-23T14:12:16.968Z,37.54
2023-06-23T14:16:33.292Z,35.87
2023-06-23T14:20:49.632Z,36.36
2023-06-23T14:25:06.435Z,35.71
2023-06-23T14:29:22.726Z,36.41
2023-06-23T14:33:39.087Z,36.05
2023-06-23T14:37:55.366Z,34.15
2023-06-23T14:42:11.903Z,34.08
2023-06-23T14:46:28.234Z,34.62
2023-06-23T14:50:44.608Z,37.24
2023-06-23T14:55:01.189Z,33.98
2023-06-23T14:59:17.527Z,33.41
2023-06-23T15:03:33.923Z,33.29
2023-06-23T15:07:55.207Z,34.02
2023-06-23T15:12:12.580Z,34.62
2023-06-23T15:16:28.931Z,33.92
2023-06-23T15:20:45.244Z,34.09
2023-06-23T15:25:01.636Z,34.38
2023-06-23T15:29:17.989Z,34.84
2023-06-23T15:33:36.046Z,35.86
2023-06-23T15:37:52.436Z,35.82
2023-06-23T15:42:11.760Z,35.60
2023-06-23T15:46:28.116Z,37.68
2023-06-23T15:50:44.504Z,38.13
2023-06-23T15:55:00.898Z,37.00
2023-06-23T15:59:18.522Z,36.95
2023-06-23T16:03:35.591Z,38.39
2023-06-23T16:07:52.550Z,36.21
2023-06-23T16:12:09.505Z,35.47
2023-06-23T16:16:25.963Z,36.77
2023-06-23T16:20:44.617Z,37.57
2023-06-23T16:25:02.890Z,37.08
2023-06-23T16:29:19.198Z,37.43
2023-06-23T16:33:36.180Z,38.37
2023-06-23T16:37:52.429Z,38.59
2023-06-23T16:42:08.992Z,38.43
2023-06-23T16:46:25.295Z,38.67
2023-06-23T16:50:41.657Z,38.61
2023-06-23T16:54:58.637Z,38.14
2023-06-23T16:59:15.040Z,38.34
2023-06-23T17:03:31.440Z,37.93
2023-06-23T17:07:47.832Z,38.59
2023-06-23T17:12:17.873Z,39.14
2023-06-23T17:16:35.787Z,39.89
2023-06-23T17:20:52.363Z,40.20
2023-06-23T17:25:10.734Z,40.75
2023-06-23T17:29:27.062Z,42.64
2023-06-23T17:33:44.062Z,43.08
2023-06-23T17:38:00.367Z,43.26
2023-06-23T17:42:17.117Z,42.80
2023-06-23T17:46:34.060Z,42.89
2023-06-23T17:50:50.868Z,43.62
2023-06-23T17:55:07.776Z,43.82
2023-06-23T17:59:24.070Z,43.11
2023-06-23T18:03:40.675Z,42.43
2023-06-23T18:07:57.223Z,42.70
2023-06-23T18:12:13.547Z,42.66
2023-06-23T18:16:30.034Z,43.35
2023-06-23T18:20:47.478Z,43.38
2023-06-23T18:25:04.492Z,44.08
2023-06-23T18:29:20.831Z,44.46
2023-06-23T18:33:37.317Z,44.75
2023-06-23T18:37:53.941Z,44.97
2023-06-23T18:42:10.467Z,46.42
2023-06-23T18:46:26.729Z,46.67
2023-06-23T18:50:43.086Z,46.45
2023-06-23T18:54:59.574Z,46.74
2023-06-23T18:59:15.972Z,46.97
2023-06-23T19:03:34.025Z,47.44
2023-06-23T19:07:52.510Z,48.56
2023-06-23T19:12:10.213Z,49.16
2023-06-23T19:16:27.436Z,48.96
2023-06-23T19:20:43.801Z,49.41
2023-06-23T19:25:00.217Z,48.54
2023-06-23T19:29:22.020Z,48.90
2023-06-23T19:33:38.855Z,48.53
2023-06-23T19:37:55.175Z,48.81
2023-06-23T19:42:11.633Z,49.02
2023-06-23T19:46:27.930Z,48.78
2023-06-23T19:50:44.295Z,49.08
2023-06-23T19:55:00.882Z,48.51
2023-06-23T19:59:17.290Z,49.38
2023-06-23T20:03:33.622Z,49.85
2023-06-23T20:07:52.057Z,50.60
2023-06-23T20:12:08.633Z,51.40
2023-06-23T20:16:29.081Z,53.74
2023-06-23T20:20:45.805Z,54.46
2023-06-23T20:25:04.547Z,57.01
2023-06-23T20:29:20.954Z,57.61
2023-06-23T20:33:37.278Z,60.14
2023-06-23T20:37:53.609Z,59.98
2023-06-23T20:42:09.960Z,59.56
2023-06-23T20:46:27.662Z,60.00
2023-06-23T20:50:44.399Z,59.20
2023-06-23T20:55:00.658Z,59.64
2023-06-23T20:59:18.459Z,64.18
2023-06-23T21:03:45.312Z,61.27
2023-06-23T21:08:03.034Z,63.04
2023-06-23T21:12:19.396Z,64.34
2023-06-23T21:16:35.726Z,63.55
2023-06-23T21:20:52.143Z,62.65
2023-06-23T21:25:08.696Z,63.40
2023-06-23T21:29:25.089Z,63.13
2023-06-23T21:33:41.410Z,65.72
2023-06-23T21:37:57.691Z,64.04
2023-06-23T21:42:14.171Z,63.82
2023-06-23T21:46:30.518Z,64.21
2023-06-23T21:50:48.165Z,63.98
2023-06-23T21:55:04.783Z,64.44
2023-06-23T21:59:21.677Z,65.30
2023-06-23T22:03:39.263Z,64.42
2023-06-23T22:07:55.636Z,65.18
2023-06-23T22:12:13.405Z,65.66
2023-06-23T22:16:29.878Z,65.77
2023-06-23T22:20:47.106Z,65.75
2023-06-23T22:25:04.109Z,65.73
2023-06-23T22:29:20.560Z,66.16
2023-06-23T22:33:37.122Z,65.75
2023-06-23T22:37:53.426Z,67.48
2023-06-23T22:42:09.779Z,68.74
2023-06-23T22:46:26.200Z,68.92
2023-06-23T22:50:42.666Z,69.09
2023-06-23T22:54:59.121Z,69.68
2023-06-23T22:59:15.715Z,69.56
2023-06-23T23:03:32.342Z,69.42
2023-06-23T23:07:48.820Z,68.44
2023-06-23T23:12:06.240Z,68.25
2023-06-23T23:16:28.372Z,68.15
2023-06-23T23:20:44.740Z,68.21
2023-06-23T23:25:01.936Z,67.86
2023-06-23T23:29:20.741Z,67.41
2023-06-23T23:33:40.661Z,67.67
2023-06-23T23:37:56.897Z,66.77
2023-06-23T23:42:13.362Z,68.06
2023-06-23T23:46:29.657Z,68.84
2023-06-23T23:50:46.028Z,69.77
2023-06-23T23:55:02.345Z,69.97
2023-06-23T23:59:18.633Z,69.04
